Jackson, KY (41339)

4:13 PM EST on January 24, 2017 (GMT -0500)
Carroll | | Change Station

Elev 1381 ft 37.59 °N, 83.32 °W | Updated 11 minutes ago

Overcast
Overcast
41 °F
Feels Like 39 °F
N
4
Wind Variable Wind from Variable

Today
High -- | Low -- °F
--% Chance of Precip.
Yesterday
High -- | Low -- °F
Precip. -- in
Pressure 29.84 in
Visibility 10.0 miles
Clouds Scattered Clouds 600 ft
Overcast 1600 ft
Windchill 39 °F
Dew Point 39 °F
Humidity 93%
Rainfall 0.22 in
Snow Depth Not available.
7:42 AM 5:49 PM
Waning Crescent, 10% visible
SPECI KJKL 242102Z AUTO VRB03KT 10SM SCT006 OVC016 05/04 A2984 RMK AO2 T00500039
Pressure 29.84 in
Visibility 10.0 miles
Clouds Scattered Clouds 600 ft
Overcast 1600 ft
Windchill 39 °F
Dew Point 39 °F
Humidity 93%
Rainfall 0.22 in
Snow Depth Not available.
7:42 AM 5:49 PM
Waning Crescent, 10% visible
SPECI KJKL 242102Z AUTO VRB03KT 10SM SCT006 OVC016 05/04 A2984 RMK AO2 T00500039

Get Your Daily Forecast Email!

Thanks for signing up!

Be on the lookout for a verification email in your inbox.

You'll start receiving the daily forecast at 8 AM.

×

10-Day Weather Forecast

Almanac

Astronomy

Jan. 24, 2017 Rise Set
Actual Time
Civil Twilight
Nautical Twilight
Astronomical Twilight
Moon
Length of Visible Light
Length of Day
Tomorrow will be .
, % of the Moon is Illuminated

Today's Extremes

State Highs State Lows

Community

WunderPhotos

Upload Photos

1,962,540 photos uploaded!

WunderBlog® & News

Nearby

Air Quality

  Air Quality AQ Index Pollutant
Not available.

Snow Depth

Station Depth Elevation

Earthquake Activity

City Distance Mag. Time & Date
Minimum magnitude displayed is 2.5.

Coastal Water Temperatures

Place Temperature

Stations

Nearby Weather Stations

Station Location Temp. Windchill Dew Point Humidity Wind Precip. Elev Updated Type
                   

Watches & Warnings

There are currently no watches in effect.